createdAt,value
2018-07-14T00:00:35.590Z,22.04
2018-07-14T00:01:35.551Z,22.17
2018-07-14T00:02:36.014Z,21.99
2018-07-14T00:03:35.694Z,22.07
2018-07-14T00:04:35.511Z,21.98
2018-07-14T00:05:35.435Z,22.02
2018-07-14T00:06:35.400Z,21.92
2018-07-14T00:07:35.499Z,21.83
2018-07-14T00:08:35.563Z,21.92
2018-07-14T00:09:35.308Z,21.76
2018-07-14T00:10:35.280Z,21.78
2018-07-14T00:11:35.252Z,21.76
2018-07-14T00:12:35.243Z,21.74
2018-07-14T00:13:35.198Z,21.75
2018-07-14T00:14:35.162Z,21.64
2018-07-14T00:15:35.127Z,21.78
2018-07-14T00:16:35.095Z,21.76
2018-07-14T00:17:35.079Z,21.83
2018-07-14T00:18:35.290Z,21.74
2018-07-14T00:19:35.011Z,21.78
2018-07-14T00:20:34.973Z,21.72
2018-07-14T00:21:34.942Z,21.78
2018-07-14T00:22:34.921Z,21.61
2018-07-14T00:23:34.905Z,21.63
2018-07-14T00:24:35.304Z,21.64
2018-07-14T00:25:34.823Z,21.64
2018-07-14T00:26:34.804Z,21.71
2018-07-14T00:27:34.760Z,21.63
2018-07-14T00:28:34.739Z,21.61
2018-07-14T00:29:34.708Z,21.61
2018-07-14T00:30:35.029Z,21.63
2018-07-14T00:31:34.650Z,21.56
2018-07-14T00:32:34.829Z,21.64
2018-07-14T00:33:34.571Z,21.61
2018-07-14T00:34:34.553Z,21.60
2018-07-14T00:35:34.545Z,21.64
2018-07-14T00:36:34.501Z,21.60
2018-07-14T00:37:34.455Z,21.48
2018-07-14T00:38:34.449Z,21.38
2018-07-14T00:39:34.407Z,21.41
2018-07-14T00:40:34.382Z,21.41
2018-07-14T00:41:34.480Z,21.29
2018-07-14T00:42:34.327Z,21.34
2018-07-14T00:43:34.281Z,21.29
2018-07-14T00:44:34.262Z,21.27
2018-07-14T00:45:34.208Z,21.32
2018-07-14T00:46:34.178Z,21.21
2018-07-14T00:47:34.159Z,21.21
2018-07-14T00:48:34.119Z,21.17
2018-07-14T00:49:34.083Z,21.17
2018-07-14T00:50:34.067Z,21.17
2018-07-14T00:51:34.026Z,21.19
2018-07-14T00:52:34.142Z,21.14
2018-07-14T00:53:34.000Z,21.17
2018-07-14T00:54:33.954Z,21.14
2018-07-14T00:55:33.926Z,21.11
2018-07-14T00:56:33.884Z,21.23
2018-07-14T00:57:33.859Z,21.17
2018-07-14T00:58:33.807Z,21.20
2018-07-14T00:59:33.801Z,21.16
2018-07-14T01:00:33.751Z,21.16
2018-07-14T01:01:33.717Z,21.19
2018-07-14T01:02:33.753Z,21.16
2018-07-14T01:03:33.660Z,21.20
2018-07-14T01:04:33.623Z,21.24
2018-07-14T01:05:33.600Z,21.23
2018-07-14T01:06:33.573Z,21.19
2018-07-14T01:07:33.538Z,21.27
2018-07-14T01:08:33.653Z,21.29
2018-07-14T01:09:33.482Z,21.30
2018-07-14T01:10:33.452Z,21.35
2018-07-14T01:11:33.423Z,21.26
2018-07-14T01:12:33.386Z,21.39
2018-07-14T01:13:33.349Z,21.30
2018-07-14T01:14:33.318Z,21.23
2018-07-14T01:15:33.297Z,21.34
2018-07-14T01:16:33.249Z,21.34
2018-07-14T01:17:33.232Z,21.30
2018-07-14T01:18:33.264Z,21.36
2018-07-14T01:19:33.167Z,21.41
2018-07-14T01:20:33.128Z,21.41
2018-07-14T01:21:33.110Z,21.41
2018-07-14T01:22:33.080Z,21.46
2018-07-14T01:23:33.040Z,21.35
2018-07-14T01:24:33.162Z,21.39
2018-07-14T01:25:32.986Z,21.36
2018-07-14T01:26:32.959Z,21.35
2018-07-14T01:27:32.921Z,21.38
2018-07-14T01:28:32.919Z,21.30
2018-07-14T01:29:32.859Z,21.34
2018-07-14T01:30:32.839Z,21.32
2018-07-14T01:31:32.800Z,21.34
2018-07-14T01:32:32.802Z,21.34
2018-07-14T01:33:32.750Z,21.24
2018-07-14T01:35:32.697Z,21.16
2018-07-14T01:36:32.640Z,21.16
2018-07-14T01:37:32.601Z,21.19
2018-07-14T01:38:32.580Z,21.17
2018-07-14T01:39:32.577Z,21.19
2018-07-14T01:40:32.720Z,21.05
2018-07-14T01:41:32.503Z,20.99
2018-07-14T01:42:32.452Z,20.91
2018-07-14T01:43:32.435Z,20.95
2018-07-14T01:44:32.386Z,20.91
2018-07-14T01:45:32.377Z,20.95
2018-07-14T01:46:32.331Z,20.95
2018-07-14T01:47:32.295Z,20.90
2018-07-14T01:48:32.283Z,20.90
2018-07-14T01:49:32.254Z,20.91
2018-07-14T01:50:32.213Z,20.91
2018-07-14T01:51:32.331Z,20.87
2018-07-14T01:52:32.160Z,20.89
2018-07-14T01:53:32.115Z,21.11
2018-07-14T01:54:32.089Z,21.06
2018-07-14T01:55:32.079Z,20.98
2018-07-14T01:56:32.172Z,21.06
2018-07-14T01:57:32.013Z,20.95
2018-07-14T01:58:31.955Z,20.99
2018-07-14T01:59:31.924Z,20.84
2018-07-14T02:00:32.002Z,20.89
2018-07-14T02:01:31.876Z,20.84
2018-07-14T02:02:31.831Z,20.89
2018-07-14T02:03:31.808Z,20.84
2018-07-14T02:04:31.778Z,20.76
2018-07-14T02:05:31.739Z,20.76
2018-07-14T02:06:31.715Z,20.62
2018-07-14T02:07:31.696Z,20.65
2018-07-14T02:08:31.654Z,20.66
2018-07-14T02:09:31.611Z,20.54
2018-07-14T02:10:31.589Z,20.50
2018-07-14T02:11:31.541Z,20.49
2018-07-14T02:12:31.677Z,20.50
2018-07-14T02:13:31.479Z,20.50
2018-07-14T02:14:31.453Z,20.42
2018-07-14T02:15:31.432Z,20.35
2018-07-14T02:16:31.394Z,20.34
2018-07-14T02:17:31.355Z,20.34
2018-07-14T02:18:31.428Z,20.18
2018-07-14T02:19:31.295Z,20.13
2018-07-14T02:20:31.259Z,20.20
2018-07-14T02:21:31.225Z,20.24
2018-07-14T02:22:31.210Z,20.27
2018-07-14T02:23:31.544Z,20.39
2018-07-14T02:24:31.139Z,20.27
2018-07-14T02:25:31.102Z,20.23
2018-07-14T02:26:31.098Z,20.20
2018-07-14T02:27:31.070Z,20.24
2018-07-14T02:28:31.027Z,20.28
2018-07-14T02:29:31.239Z,20.33
2018-07-14T02:30:30.954Z,20.35
2018-07-14T02:31:30.927Z,20.31
2018-07-14T02:32:30.886Z,20.41
2018-07-14T02:33:30.872Z,20.49
2018-07-14T02:34:30.826Z,20.46
2018-07-14T02:35:30.943Z,20.58
2018-07-14T02:36:30.784Z,20.47
2018-07-14T02:37:30.752Z,20.53
2018-07-14T02:38:30.697Z,20.51
2018-07-14T02:39:30.679Z,20.53
2018-07-14T02:40:30.644Z,20.56
2018-07-14T02:41:30.618Z,20.56
2018-07-14T02:42:30.578Z,20.53
2018-07-14T02:43:30.541Z,20.53
2018-07-14T02:44:30.528Z,20.53
2018-07-14T02:45:30.483Z,20.61
2018-07-14T02:46:30.651Z,20.59
2018-07-14T02:47:30.418Z,20.64
2018-07-14T02:48:30.385Z,20.64
2018-07-14T02:49:30.359Z,20.64
2018-07-14T02:50:30.328Z,20.64
2018-07-14T02:51:30.295Z,20.74
2018-07-14T02:52:30.256Z,20.74
2018-07-14T02:53:30.235Z,20.77
2018-07-14T02:54:30.202Z,20.77
2018-07-14T02:55:30.166Z,20.80
2018-07-14T02:56:30.134Z,20.77
2018-07-14T02:57:30.253Z,20.84
2018-07-14T02:58:30.085Z,20.77
2018-07-14T02:59:30.040Z,20.72
2018-07-14T03:00:30.008Z,20.65
2018-07-14T03:01:29.990Z,20.64
2018-07-14T03:02:29.957Z,20.58
2018-07-14T03:03:30.029Z,20.53
2018-07-14T03:04:29.889Z,20.65
2018-07-14T03:05:29.854Z,20.50
2018-07-14T03:06:29.825Z,20.53
2018-07-14T03:07:29.790Z,20.34
2018-07-14T03:08:29.823Z,20.24
2018-07-14T03:09:29.727Z,20.12
2018-07-14T03:10:29.697Z,20.08
2018-07-14T03:11:29.661Z,20.10
2018-07-14T03:12:29.632Z,20.08
2018-07-14T03:13:29.591Z,20.05
2018-07-14T03:14:29.796Z,20.02
2018-07-14T03:15:29.525Z,20.00
2018-07-14T03:16:29.494Z,20.00
2018-07-14T03:17:29.472Z,20.03
2018-07-14T03:18:29.436Z,20.00
2018-07-14T03:19:29.408Z,20.09
2018-07-14T03:20:29.375Z,20.08
2018-07-14T03:21:29.355Z,20.00
2018-07-14T03:22:29.331Z,19.94
2018-07-14T03:23:29.281Z,19.95
2018-07-14T03:24:29.250Z,19.95
2018-07-14T03:25:29.214Z,19.88
2018-07-14T03:26:29.198Z,19.95
2018-07-14T03:27:29.162Z,19.97
2018-07-14T03:28:29.115Z,19.93
2018-07-14T03:29:29.092Z,19.95
2018-07-14T03:30:29.057Z,19.91
2018-07-14T03:31:29.028Z,19.93
2018-07-14T03:32:29.002Z,19.93
2018-07-14T03:33:28.962Z,19.97
2018-07-14T03:34:28.927Z,19.93
2018-07-14T03:35:28.904Z,19.88
2018-07-14T03:36:28.865Z,19.78
2018-07-14T03:37:28.831Z,19.70
2018-07-14T03:38:28.808Z,19.68
2018-07-14T03:39:28.793Z,19.69
2018-07-14T03:40:28.739Z,19.68
2018-07-14T03:41:28.708Z,19.69
2018-07-14T03:42:28.676Z,19.69
2018-07-14T03:43:28.646Z,19.73
2018-07-14T03:44:28.613Z,19.69
2018-07-14T03:45:28.881Z,19.70
2018-07-14T03:46:28.544Z,19.78
2018-07-14T03:47:28.517Z,19.84
2018-07-14T03:48:28.488Z,19.88
2018-07-14T03:49:28.463Z,19.88
2018-07-14T03:50:28.422Z,19.97
2018-07-14T03:51:28.387Z,20.02
2018-07-14T03:52:28.361Z,20.09
2018-07-14T03:53:28.321Z,20.05
2018-07-14T03:54:28.292Z,20.12
2018-07-14T03:55:28.280Z,20.09
2018-07-14T03:56:28.378Z,20.10
2018-07-14T03:57:28.196Z,20.16
2018-07-14T03:58:28.162Z,20.15
2018-07-14T03:59:28.133Z,20.18
2018-07-14T04:00:28.102Z,20.00
2018-07-14T04:01:28.067Z,20.00
2018-07-14T04:02:28.321Z,19.97
2018-07-14T04:03:28.009Z,19.88
2018-07-14T04:04:27.979Z,19.93
2018-07-14T04:05:27.946Z,19.84
2018-07-14T04:06:27.920Z,19.83
2018-07-14T04:07:28.011Z,19.76
2018-07-14T04:08:28.098Z,19.75
2018-07-14T04:09:27.812Z,19.73
2018-07-14T04:10:27.784Z,19.84
2018-07-14T04:11:27.754Z,19.84
2018-07-14T04:12:27.840Z,19.95
2018-07-14T04:13:27.694Z,19.93
2018-07-14T04:14:27.654Z,19.93
2018-07-14T04:15:27.627Z,20.02
2018-07-14T04:16:27.595Z,20.03
2018-07-14T04:17:27.564Z,20.02
2018-07-14T04:18:27.531Z,20.08
2018-07-14T04:20:27.464Z,20.03
2018-07-14T04:21:27.435Z,20.06
2018-07-14T04:22:27.404Z,19.95
2018-07-14T04:23:27.370Z,19.90
2018-07-14T04:24:27.389Z,19.93
2018-07-14T04:25:27.657Z,19.88
2018-07-14T04:26:27.274Z,19.86
2018-07-14T04:27:27.240Z,19.86
2018-07-14T04:28:27.214Z,19.80
2018-07-14T04:29:27.175Z,19.69
2018-07-14T04:30:27.142Z,19.79
2018-07-14T04:31:27.364Z,19.70
2018-07-14T04:32:27.081Z,19.73
2018-07-14T04:33:27.048Z,19.65
2018-07-14T04:34:27.025Z,19.63
2018-07-14T04:35:26.988Z,19.63
2018-07-14T04:36:26.955Z,19.55
2018-07-14T04:38:26.891Z,19.58
2018-07-14T04:39:26.861Z,19.50
2018-07-14T04:40:26.825Z,19.46
2018-07-14T04:41:26.793Z,19.46
2018-07-14T04:42:26.826Z,19.40
2018-07-14T04:43:26.733Z,19.35
2018-07-14T04:44:26.693Z,19.29
2018-07-14T04:45:26.672Z,19.21
2018-07-14T04:46:26.642Z,19.11
2018-07-14T04:47:26.605Z,19.06
2018-07-14T04:48:26.716Z,19.06
2018-07-14T04:49:26.542Z,19.18
2018-07-14T04:50:26.501Z,19.14
2018-07-14T04:51:26.477Z,19.15
2018-07-14T04:52:26.442Z,19.15
2018-07-14T04:53:26.407Z,19.18
2018-07-14T04:54:26.379Z,19.11
2018-07-14T04:55:26.350Z,19.14
2018-07-14T04:56:26.322Z,19.13
2018-07-14T04:57:26.278Z,19.13
2018-07-14T04:58:26.252Z,19.24
2018-07-14T04:59:26.562Z,19.21
2018-07-14T05:00:26.184Z,19.31
2018-07-14T05:01:26.162Z,19.32
2018-07-14T05:02:26.120Z,19.38
2018-07-14T05:03:26.088Z,19.51
2018-07-14T05:04:26.078Z,19.50
2018-07-14T05:05:26.370Z,19.54
2018-07-14T05:06:26.017Z,19.50
2018-07-14T05:07:25.956Z,19.50
2018-07-14T05:08:25.928Z,19.42
2018-07-14T05:09:25.901Z,19.40
2018-07-14T05:10:25.870Z,19.42
2018-07-14T05:11:25.982Z,19.43
2018-07-14T05:12:25.798Z,19.48
2018-07-14T05:13:25.766Z,19.48
2018-07-14T05:14:25.747Z,19.50
2018-07-14T05:15:25.699Z,19.63
2018-07-14T05:16:25.668Z,19.58
2018-07-14T05:17:25.635Z,19.51
2018-07-14T05:18:25.604Z,19.60
2018-07-14T05:19:25.573Z,19.51
2018-07-14T05:20:25.541Z,19.51
2018-07-14T05:21:25.579Z,19.54
2018-07-14T05:22:25.477Z,19.47
2018-07-14T05:23:25.446Z,19.55
2018-07-14T05:24:25.408Z,19.69
2018-07-14T05:25:25.377Z,19.72
2018-07-14T05:26:25.345Z,19.72
2018-07-14T05:27:25.320Z,19.65
2018-07-14T05:28:25.279Z,19.65
2018-07-14T05:29:25.247Z,19.68
2018-07-14T05:30:25.218Z,19.60
2018-07-14T05:31:25.185Z,19.48
2018-07-14T05:32:25.157Z,19.43
2018-07-14T05:33:25.117Z,19.28
2018-07-14T05:34:25.098Z,19.31
2018-07-14T05:35:25.060Z,19.24
2018-07-14T05:36:25.030Z,19.23
2018-07-14T05:37:24.991Z,19.21
2018-07-14T05:38:24.962Z,19.25
2018-07-14T05:39:24.939Z,19.10
2018-07-14T05:40:24.894Z,19.10
2018-07-14T05:41:24.861Z,19.11
2018-07-14T05:42:24.830Z,19.01
2018-07-14T05:43:24.804Z,19.11
2018-07-14T05:44:24.768Z,19.06
2018-07-14T05:45:24.736Z,18.99
2018-07-14T05:46:24.697Z,18.91
2018-07-14T05:47:24.666Z,18.94
2018-07-14T05:48:24.635Z,18.83
2018-07-14T05:49:24.610Z,18.87
2018-07-14T05:50:24.575Z,18.77
2018-07-14T05:51:24.540Z,18.91
2018-07-14T05:52:24.504Z,18.86
2018-07-14T05:53:24.829Z,18.82
2018-07-14T05:54:24.452Z,18.80
2018-07-14T05:55:24.409Z,18.80
2018-07-14T05:56:24.388Z,18.87
2018-07-14T05:57:24.351Z,18.82
2018-07-14T05:58:24.312Z,18.84
2018-07-14T05:59:24.432Z,18.91
2018-07-14T06:00:24.249Z,18.87
2018-07-14T06:01:24.218Z,18.91
2018-07-14T06:02:24.181Z,18.86
2018-07-14T06:03:24.152Z,18.83
2018-07-14T06:04:24.120Z,18.90
2018-07-14T06:05:24.085Z,18.84
2018-07-14T06:06:24.054Z,18.91
2018-07-14T06:07:24.019Z,18.92
2018-07-14T06:08:24.010Z,18.95
2018-07-14T06:09:23.955Z,18.99
2018-07-14T06:10:23.921Z,18.98
2018-07-14T06:11:23.893Z,19.08
2018-07-14T06:12:23.862Z,19.01
2018-07-14T06:13:23.831Z,18.97
2018-07-14T06:14:23.803Z,18.99
2018-07-14T06:15:23.760Z,19.10
2018-07-14T06:16:23.736Z,18.95
2018-07-14T06:17:23.708Z,19.06
2018-07-14T06:18:23.724Z,18.99
2018-07-14T06:19:23.641Z,18.98
2018-07-14T06:20:23.661Z,18.95
2018-07-14T06:21:23.715Z,18.87
2018-07-14T06:22:23.534Z,18.91
2018-07-14T06:23:23.511Z,18.83
2018-07-14T06:24:23.468Z,18.82
2018-07-14T06:25:23.436Z,18.83
2018-07-14T06:26:23.405Z,18.80
2018-07-14T06:27:23.372Z,18.86
2018-07-14T06:28:23.343Z,18.83
2018-07-14T06:29:23.314Z,18.79
2018-07-14T06:30:23.285Z,18.79
2018-07-14T06:31:23.243Z,18.74
2018-07-14T06:32:23.419Z,18.77
2018-07-14T06:33:23.197Z,18.76
2018-07-14T06:34:23.150Z,18.83
2018-07-14T06:35:23.110Z,18.80
2018-07-14T06:36:23.080Z,18.91
2018-07-14T06:37:23.042Z,18.94
2018-07-14T06:39:22.977Z,19.01
2018-07-14T06:40:22.949Z,18.95
2018-07-14T06:41:22.913Z,19.10
2018-07-14T06:42:22.885Z,19.10
2018-07-14T06:43:22.850Z,19.08
2018-07-14T06:44:22.819Z,19.02
2018-07-14T06:45:22.785Z,19.15
2018-07-14T06:46:22.756Z,19.02
2018-07-14T06:47:22.720Z,18.98
2018-07-14T06:48:22.685Z,19.06
2018-07-14T06:49:22.654Z,19.06
2018-07-14T06:50:22.628Z,18.99
2018-07-14T06:51:22.589Z,18.97
2018-07-14T06:52:22.562Z,19.02
2018-07-14T06:53:22.523Z,19.08
2018-07-14T06:54:22.940Z,19.06
2018-07-14T06:55:22.462Z,18.95
2018-07-14T06:56:22.423Z,18.98
2018-07-14T06:57:22.396Z,18.95
2018-07-14T06:58:22.358Z,18.92
2018-07-14T06:59:22.398Z,18.94
2018-07-14T07:00:22.443Z,18.83
2018-07-14T07:01:22.287Z,18.84
2018-07-14T07:02:22.240Z,18.79
2018-07-14T07:03:22.233Z,18.77
2018-07-14T07:04:22.172Z,18.65
2018-07-14T07:05:22.135Z,18.64
2018-07-14T07:06:22.098Z,18.68
2018-07-14T07:07:22.064Z,18.50
2018-07-14T07:08:22.033Z,18.54
2018-07-14T07:09:22.001Z,18.50
2018-07-14T07:10:21.980Z,18.49
2018-07-14T07:11:21.940Z,18.46
2018-07-14T07:12:21.915Z,18.40
2018-07-14T07:13:21.870Z,18.34
2018-07-14T07:14:21.840Z,18.34
2018-07-14T07:15:21.805Z,18.34
2018-07-14T07:16:21.775Z,18.43
2018-07-14T07:17:21.738Z,18.31
2018-07-14T07:18:21.708Z,18.33
2018-07-14T07:19:21.676Z,18.33
2018-07-14T07:20:21.641Z,18.34
2018-07-14T07:21:21.620Z,18.36
2018-07-14T07:22:21.943Z,18.25
2018-07-14T07:23:21.541Z,18.24
2018-07-14T07:24:21.512Z,18.15
2018-07-14T07:25:21.474Z,18.21
2018-07-14T07:26:21.450Z,18.22
2018-07-14T07:27:21.409Z,18.31
2018-07-14T07:28:21.381Z,18.24
2018-07-14T07:29:21.345Z,18.25
2018-07-14T07:30:21.312Z,18.29
2018-07-14T07:31:21.278Z,18.24
2018-07-14T07:32:21.244Z,18.28
2018-07-14T07:33:21.368Z,18.29
2018-07-14T07:34:21.181Z,18.22
2018-07-14T07:35:21.146Z,18.17
2018-07-14T07:36:21.114Z,18.18
2018-07-14T07:37:21.080Z,18.21
2018-07-14T07:38:21.056Z,18.10
2018-07-14T07:39:21.168Z,18.09
2018-07-14T07:40:20.986Z,18.04
2018-07-14T07:41:20.956Z,18.03
2018-07-14T07:42:20.982Z,18.09
2018-07-14T07:43:20.936Z,18.03
2018-07-14T07:44:20.859Z,18.09
2018-07-14T07:45:20.823Z,18.07
2018-07-14T07:46:20.787Z,18.04
2018-07-14T07:47:20.753Z,18.09
2018-07-14T07:48:20.720Z,18.04
2018-07-14T07:49:20.698Z,18.00
2018-07-14T07:50:20.654Z,18.02
2018-07-14T07:51:20.623Z,18.03
2018-07-14T07:52:20.593Z,18.00
2018-07-14T07:53:20.560Z,18.09
2018-07-14T07:54:20.521Z,18.06
2018-07-14T07:55:20.743Z,18.13
2018-07-14T07:56:20.459Z,18.00
2018-07-14T07:57:20.442Z,18.06
2018-07-14T07:58:20.416Z,18.07
2018-07-14T07:59:20.371Z,18.02
2018-07-14T08:00:20.325Z,18.02
2018-07-14T08:01:20.546Z,18.07
2018-07-14T08:02:20.258Z,18.09
2018-07-14T08:03:20.225Z,18.10
2018-07-14T08:04:20.189Z,18.02
2018-07-14T08:05:20.157Z,18.18
2018-07-14T08:06:20.125Z,18.15
2018-07-14T08:07:20.302Z,18.21
2018-07-14T08:08:20.067Z,18.25
2018-07-14T08:09:20.030Z,18.27
2018-07-14T08:10:20.001Z,18.33
2018-07-14T08:11:19.962Z,18.36
2018-07-14T08:12:19.939Z,18.36
2018-07-14T08:13:19.894Z,18.36
2018-07-14T08:14:19.865Z,18.36
2018-07-14T08:15:19.832Z,18.42
2018-07-14T08:16:19.797Z,18.33
2018-07-14T08:17:19.762Z,18.42
2018-07-14T08:18:19.729Z,18.37
2018-07-14T08:19:19.698Z,18.37
2018-07-14T08:20:19.666Z,18.37
2018-07-14T08:21:19.634Z,18.37
2018-07-14T08:22:19.597Z,18.34
2018-07-14T08:23:19.730Z,18.39
2018-07-14T08:24:19.593Z,18.31
2018-07-14T08:25:20.105Z,18.34
2018-07-14T08:26:19.466Z,18.22
2018-07-14T08:27:19.430Z,18.13
2018-07-14T08:28:19.400Z,18.04
2018-07-14T08:29:19.366Z,18.04
2018-07-14T08:30:19.335Z,18.04
2018-07-14T08:31:19.302Z,18.06
2018-07-14T08:32:19.291Z,18.19
2018-07-14T08:33:19.233Z,18.21
2018-07-14T08:34:19.349Z,18.15
2018-07-14T08:35:19.168Z,18.18
2018-07-14T08:36:19.139Z,18.19
2018-07-14T08:37:19.102Z,18.18
2018-07-14T08:38:19.066Z,18.19
2018-07-14T08:39:19.034Z,18.18
2018-07-14T08:40:19.009Z,18.21
2018-07-14T08:41:18.970Z,18.18
2018-07-14T08:42:18.938Z,18.10
2018-07-14T08:43:18.901Z,18.12
2018-07-14T08:44:18.877Z,18.10
2018-07-14T08:45:18.838Z,18.02
2018-07-14T08:46:18.803Z,18.04
2018-07-14T08:47:18.768Z,18.02
2018-07-14T08:48:18.736Z,17.89
2018-07-14T08:49:18.722Z,18.02
2018-07-14T08:50:18.670Z,18.00
2018-07-14T08:51:18.650Z,18.06
2018-07-14T08:52:18.600Z,18.03
2018-07-14T08:53:18.575Z,18.13
2018-07-14T08:54:18.535Z,18.09
2018-07-14T08:55:18.505Z,18.07
2018-07-14T08:56:18.471Z,18.06
2018-07-14T08:57:18.436Z,18.07
2018-07-14T08:58:18.503Z,18.04
2018-07-14T08:59:18.368Z,18.10
2018-07-14T09:00:18.717Z,18.04
2018-07-14T09:01:18.302Z,18.03
2018-07-14T09:02:18.272Z,18.00
2018-07-14T09:03:18.238Z,17.88
2018-07-14T09:04:18.210Z,17.97
2018-07-14T09:05:18.171Z,18.02
2018-07-14T09:06:18.390Z,18.02
2018-07-14T09:07:18.107Z,18.02
2018-07-14T09:08:18.076Z,17.89
2018-07-14T09:09:18.039Z,17.88
2018-07-14T09:10:18.009Z,17.92
2018-07-14T09:11:17.969Z,17.88
2018-07-14T09:12:18.184Z,17.92
2018-07-14T09:13:17.908Z,17.94
2018-07-14T09:14:17.869Z,17.92
2018-07-14T09:15:17.837Z,18.03
2018-07-14T09:16:17.804Z,18.04
2018-07-14T09:17:17.772Z,18.03
2018-07-14T09:18:17.741Z,18.10
2018-07-14T09:19:17.712Z,18.04
2018-07-14T09:20:17.673Z,18.06
2018-07-14T09:21:17.635Z,18.02
2018-07-14T09:22:17.605Z,18.06
2018-07-14T09:23:17.822Z,18.10
2018-07-14T09:24:17.536Z,18.10
2018-07-14T09:25:17.505Z,18.03
2018-07-14T09:26:17.475Z,18.04
2018-07-14T09:27:17.451Z,18.12
2018-07-14T09:28:17.413Z,18.13
2018-07-14T09:29:17.527Z,18.02
2018-07-14T09:30:17.402Z,18.10
2018-07-14T09:31:17.308Z,18.06
2018-07-14T09:32:17.273Z,18.04
2018-07-14T09:33:17.237Z,18.04
2018-07-14T09:34:17.208Z,18.02
2018-07-14T09:35:17.326Z,17.95
2018-07-14T09:36:17.139Z,17.89
2018-07-14T09:37:17.103Z,17.82
2018-07-14T09:38:17.069Z,17.76
2018-07-14T09:39:17.037Z,17.74
2018-07-14T09:40:17.029Z,17.69
2018-07-14T09:41:16.977Z,17.76
2018-07-14T09:42:16.938Z,17.66
2018-07-14T09:43:16.905Z,17.63
2018-07-14T09:44:16.874Z,17.55
2018-07-14T09:45:16.838Z,17.53
2018-07-14T09:46:16.805Z,17.59
2018-07-14T09:47:16.771Z,17.50
2018-07-14T09:48:17.075Z,17.48
2018-07-14T09:49:16.713Z,17.48
2018-07-14T09:50:16.693Z,17.47
2018-07-14T09:51:16.646Z,17.30
2018-07-14T09:52:16.612Z,17.36
2018-07-14T09:53:16.578Z,17.28
2018-07-14T09:54:16.542Z,17.28
2018-07-14T09:55:16.577Z,17.30
2018-07-14T09:56:16.471Z,17.35
2018-07-14T09:57:16.440Z,17.30
2018-07-14T09:58:16.403Z,17.22
2018-07-14T09:59:16.384Z,17.33
2018-07-14T10:00:16.339Z,17.35
2018-07-14T10:01:16.449Z,17.35
2018-07-14T10:02:16.273Z,17.23
2018-07-14T10:03:16.285Z,17.22
2018-07-14T10:04:16.200Z,17.20
2018-07-14T10:05:16.173Z,17.26
2018-07-14T10:06:16.193Z,17.38
2018-07-14T10:07:16.252Z,17.35
2018-07-14T10:08:16.068Z,17.41
2018-07-14T10:09:16.033Z,17.36
2018-07-14T10:10:16.001Z,17.47
2018-07-14T10:11:15.982Z,17.47
2018-07-14T10:12:15.939Z,17.51
2018-07-14T10:13:15.947Z,17.54
2018-07-14T10:14:15.871Z,17.50
2018-07-14T10:15:15.833Z,17.59
2018-07-14T10:16:15.803Z,17.73
2018-07-14T10:17:15.791Z,17.69
2018-07-14T10:18:15.742Z,17.74
2018-07-14T10:19:15.714Z,17.76
2018-07-14T10:20:15.673Z,17.82
2018-07-14T10:21:15.634Z,17.84
2018-07-14T10:22:15.632Z,17.89
2018-07-14T10:23:15.829Z,17.91
2018-07-14T10:24:15.535Z,17.88
2018-07-14T10:25:15.535Z,17.91
2018-07-14T10:26:15.469Z,17.94
2018-07-14T10:27:15.439Z,18.04
2018-07-14T10:28:15.406Z,18.03
2018-07-14T10:29:15.523Z,18.03
2018-07-14T10:30:15.351Z,18.00
2018-07-14T10:31:15.320Z,18.09
2018-07-14T10:32:15.279Z,18.04
2018-07-14T10:33:15.247Z,18.04
2018-07-14T10:34:15.206Z,18.06
2018-07-14T10:35:15.327Z,18.13
2018-07-14T10:36:15.157Z,18.21
2018-07-14T10:37:15.109Z,18.17
2018-07-14T10:38:15.078Z,18.19
2018-07-14T10:39:15.048Z,18.22
2018-07-14T10:40:15.013Z,18.31
2018-07-14T10:41:14.978Z,18.33
2018-07-14T10:42:14.968Z,18.34
2018-07-14T10:43:14.912Z,18.37
2018-07-14T10:44:14.882Z,18.36
2018-07-14T10:45:14.856Z,18.47
2018-07-14T10:46:14.814Z,18.40
2018-07-14T10:47:14.785Z,18.44
2018-07-14T10:48:14.746Z,18.50
2018-07-14T10:49:14.713Z,18.55
2018-07-14T10:50:14.677Z,18.59
2018-07-14T10:51:14.655Z,18.62
2018-07-14T10:52:14.624Z,18.67
2018-07-14T10:53:14.588Z,18.83
2018-07-14T10:54:14.552Z,18.90
2018-07-14T10:55:14.600Z,18.92
2018-07-14T10:56:14.485Z,19.02
2018-07-14T10:57:14.452Z,19.02
2018-07-14T10:58:14.511Z,19.10
2018-07-14T10:59:14.397Z,19.14
2018-07-14T11:00:14.354Z,19.24
2018-07-14T11:01:14.324Z,19.33
2018-07-14T11:02:14.443Z,19.29
2018-07-14T11:03:14.258Z,19.40
2018-07-14T11:04:14.230Z,19.46
2018-07-14T11:05:14.201Z,19.53
2018-07-14T11:06:14.162Z,19.60
2018-07-14T11:07:14.128Z,19.58
2018-07-14T11:08:14.456Z,19.57
2018-07-14T11:09:14.067Z,19.66
2018-07-14T11:10:14.034Z,19.69
2018-07-14T11:11:14.006Z,19.68
2018-07-14T11:12:14.036Z,19.68
2018-07-14T11:13:13.944Z,19.87
2018-07-14T11:14:13.907Z,19.88
2018-07-14T11:15:13.874Z,19.83
2018-07-14T11:16:13.843Z,19.93
2018-07-14T11:17:13.808Z,19.98
2018-07-14T11:18:13.786Z,19.98
2018-07-14T11:19:13.742Z,20.08
2018-07-14T11:20:13.713Z,19.97
2018-07-14T11:21:13.692Z,20.08
2018-07-14T11:22:13.654Z,20.09
2018-07-14T11:23:13.617Z,20.05
2018-07-14T11:24:13.587Z,20.08
2018-07-14T11:25:13.556Z,20.10
2018-07-14T11:26:13.521Z,20.20
2018-07-14T11:27:13.526Z,20.20
2018-07-14T11:28:13.470Z,20.18
2018-07-14T11:29:13.427Z,20.16
2018-07-14T11:30:13.427Z,20.27
2018-07-14T11:31:13.359Z,20.25
2018-07-14T11:32:13.328Z,20.41
2018-07-14T11:33:13.302Z,20.34
2018-07-14T11:34:13.270Z,20.41
2018-07-14T11:35:13.237Z,20.28
2018-07-14T11:36:13.203Z,20.34
2018-07-14T11:37:13.216Z,20.39
2018-07-14T11:38:13.149Z,20.43
2018-07-14T11:39:13.114Z,20.46
2018-07-14T11:40:13.076Z,20.54
2018-07-14T11:41:13.052Z,20.53
2018-07-14T11:42:13.085Z,20.59
2018-07-14T11:43:12.981Z,20.61
2018-07-14T11:44:12.977Z,20.64
2018-07-14T11:45:12.916Z,20.64
2018-07-14T11:46:12.888Z,20.74
2018-07-14T11:47:12.859Z,20.80
2018-07-14T11:48:12.824Z,20.79
2018-07-14T11:49:12.796Z,20.87
2018-07-14T11:50:12.763Z,20.90
2018-07-14T11:51:12.739Z,20.91
2018-07-14T11:52:12.704Z,21.02
2018-07-14T11:53:12.673Z,21.06
2018-07-14T11:54:12.652Z,21.01
2018-07-14T11:55:12.610Z,21.09
2018-07-14T11:56:12.578Z,21.08
2018-07-14T11:57:12.543Z,21.14
2018-07-14T11:58:12.532Z,21.16
2018-07-14T11:59:12.510Z,21.21
2018-07-14T12:00:12.588Z,21.23
2018-07-14T12:01:12.484Z,21.27
2018-07-14T12:02:12.401Z,21.30
2018-07-14T12:03:12.379Z,21.29
2018-07-14T12:04:12.335Z,21.30
2018-07-14T12:05:12.294Z,21.32
2018-07-14T12:06:12.417Z,21.32
2018-07-14T12:07:12.245Z,21.39
2018-07-14T12:08:12.204Z,21.36
2018-07-14T12:09:12.191Z,21.41
2018-07-14T12:10:12.159Z,21.39
2018-07-14T12:11:12.115Z,21.42
2018-07-14T12:12:12.083Z,21.53
2018-07-14T12:13:12.059Z,21.48
2018-07-14T12:14:12.021Z,21.48
2018-07-14T12:15:11.992Z,21.53
2018-07-14T12:16:11.974Z,21.56
2018-07-14T12:17:11.938Z,21.56
2018-07-14T12:18:11.898Z,21.54
2018-07-14T12:19:11.875Z,21.63
2018-07-14T12:20:11.837Z,21.63
2018-07-14T12:21:11.817Z,21.63
2018-07-14T12:22:11.827Z,21.69
2018-07-14T12:23:11.770Z,21.74
2018-07-14T12:24:11.720Z,21.74
2018-07-14T12:25:11.691Z,21.69
2018-07-14T12:26:11.654Z,21.76
2018-07-14T12:27:11.622Z,21.82
2018-07-14T12:28:11.596Z,21.81
2018-07-14T12:29:11.566Z,21.78
2018-07-14T12:30:11.555Z,21.82
2018-07-14T12:31:11.500Z,21.91
2018-07-14T12:32:11.620Z,21.90
2018-07-14T12:33:11.444Z,21.88
2018-07-14T12:34:11.409Z,21.95
2018-07-14T12:35:11.388Z,21.92
2018-07-14T12:36:11.356Z,21.92
2018-07-14T12:37:11.324Z,21.95
2018-07-14T12:38:11.638Z,21.94
2018-07-14T12:39:11.267Z,22.02
2018-07-14T12:40:11.230Z,22.04
2018-07-14T12:41:11.207Z,21.97
2018-07-14T12:42:11.170Z,22.04
2018-07-14T12:43:11.139Z,22.02
2018-07-14T12:44:11.264Z,21.99
2018-07-14T12:45:11.076Z,22.10
2018-07-14T12:46:11.066Z,22.02
2018-07-14T12:47:11.025Z,22.10
2018-07-14T12:48:10.996Z,22.06
2018-07-14T12:49:10.961Z,22.13
2018-07-14T12:50:10.935Z,22.10
2018-07-14T12:51:10.895Z,22.17
2018-07-14T12:52:10.866Z,22.20
2018-07-14T12:53:10.849Z,22.22
2018-07-14T12:54:10.823Z,22.20
2018-07-14T12:55:10.779Z,22.16
2018-07-14T12:56:10.742Z,22.16